This is the latest recevied weather packets stored in our database for station/object YD2UMH-10. If no packets are shown the sender has not sent any weather packets the latest 10 day(s).
| Time | Temp. | Humidity | Pressure | Rain* | Wind** | Luminosity | Snow |
|---|---|---|---|---|---|---|---|
| 1777960897 | 37.22° C | 94% | 989 hPa | - | - | 0 W/m² | - |
| 1777960571 | 40° C | 84% | 989 hPa | - | - | 0 W/m² | - |
| 1777960249 | 38.89° C | 88% | 989 hPa | - | - | 0 W/m² | - |
| 1777959927 | 39.44° C | 92% | 989 hPa | - | - | 0 W/m² | - |
| 1777959605 | 38.33° C | 95% | 989 hPa | - | - | 0 W/m² | - |
| 1777959283 | 37.22° C | 99% | 989 hPa | - | - | 0 W/m² | - |
| 1777958961 | 38.33° C | 97% | 989 hPa | - | - | 0 W/m² | - |
| 1777958639 | 38.33° C | 99% | 990 hPa | - | - | 0 W/m² | - |
| 1777958317 | 36.11° C | 99% | 990 hPa | - | - | 0 W/m² | - |
| 1777957995 | 40° C | 88% | 990 hPa | - | - | 0 W/m² | - |
| 1777957673 | 37.22° C | 93% | 990 hPa | - | - | 0 W/m² | - |
| 1777957351 | 39.44° C | 77% | 990 hPa | - | - | 0 W/m² | - |
| 1777957029 | 38.89° C | 85% | 990 hPa | - | - | 0 W/m² | - |
| 1777956707 | 38.89° C | 93% | 990 hPa | - | - | 0 W/m² | - |
| 1777956385 | 37.22° C | 97% | 990 hPa | - | - | 0 W/m² | - |
| 1777956063 | 36.11° C | 98% | 990 hPa | - | - | 0 W/m² | - |
| 1777955741 | 36.67° C | 96% | 990 hPa | - | - | 0 W/m² | - |
| 1777955419 | 38.33° C | 93% | 991 hPa | - | - | 0 W/m² | - |
| 1777955097 | 36.67° C | 99% | 991 hPa | - | - | 0 W/m² | - |
| 1777954775 | 37.78° C | 96% | 991 hPa | - | - | 0 W/m² | - |
| 1777954453 | 36.11° C | 99% | 991 hPa | - | - | 0 W/m² | - |
| 1777954131 | 35.56° C | 99% | 991 hPa | - | - | 0 W/m² | - |
| 1777953808 | 35° C | 99% | 991 hPa | - | - | 0 W/m² | - |
| 1777953487 | 36.67° C | 99% | 991 hPa | - | - | 0 W/m² | - |
| 1777953165 | 35.56° C | 99% | 991 hPa | - | - | 0 W/m² | - |
* Rain since midnight (hover to see other rain measurements)
** Current wind speed in m/s (hover to see current wind gust speed)